Terminal Aerodrome Forecast
Issued by NWS

Current Version | Previous Version | Text Only | Print | Product List | Glossary On
Versions: 1 2 3 4 5 6 7 8 9 10 11 12 13 14 15 16 17 18 19 20
000
FTUS42 TJSJ 291700
TAFISX
TAF
TISX 291740Z 2918/3018 VRB10KT P6SM VCSH SCT025
     FM292300 07006KT P6SM FEW025
     FM301300 11013KT P6SM SCT025=

USA.gov is the U.S. government's official web portal to all federal, state and local government web resources and services.